Main page
METAR-TAF:

METAR-TAF

Airports :

Schenectady County Airport

Schenectady, New York, United States

latitude: 42-51N, longitude: 073-56W, elevation: 377 ft

Current weather observation

The report was made 55 minutes ago, at 18:45 UTC
Wind 10 mph from the South with gusts up to 16 mph
Temperature 73°F
Humidity 53%
Pressure 29.67 in. Hg
Visibility: 10 miles
Overcast at a height of 5000 ft

METAR: KSCH 191845Z 19009G14KT 10SM OVC050 23/13 A2967

Time: 15:40 (19:40 UTC)


TAF: missing

Weather observations and forecasts of more than 4000 airports (METAR and TAF reports).

The available stations are represented by yellow and red dots on the map.

Hover mouse over dot to see the name of the station.

Then click to see weather observations and forecasts.

To change the map : click on the green buttons with a black cross to zoom in, on the green button with a dash to zoom out, or on the green arrows for adjacent maps.


METAR-TAF: